createdAt,value
2019-02-20T00:00:08.051Z,66.06
2019-02-20T00:02:37.852Z,66.09
2019-02-20T00:05:07.437Z,66.29
2019-02-20T00:07:37.003Z,66.09
2019-02-20T00:10:06.627Z,66.04
2019-02-20T00:12:36.192Z,65.98
2019-02-20T00:15:05.912Z,66.03
2019-02-20T00:17:35.505Z,66.34
2019-02-20T00:20:05.244Z,66.37
2019-02-20T00:22:40.206Z,66.21
2019-02-20T00:25:06.422Z,66.07
2019-02-20T00:27:36.010Z,65.84
2019-02-20T00:30:05.606Z,65.95
2019-02-20T00:32:35.351Z,65.88
2019-02-20T00:35:05.143Z,66.26
2019-02-20T00:37:34.635Z,65.72
2019-02-20T00:40:04.066Z,65.86
2019-02-20T00:42:33.883Z,65.87
2019-02-20T00:45:21.529Z,66.11
2019-02-20T00:48:10.349Z,66.26
2019-02-20T00:50:40.332Z,66.65
2019-02-20T00:53:20.486Z,67.12
2019-02-20T00:55:50.232Z,67.17
2019-02-20T00:58:19.636Z,67.26
2019-02-20T01:00:49.218Z,67.13
2019-02-20T01:03:18.936Z,66.88
2019-02-20T01:05:48.603Z,66.61
2019-02-20T01:08:18.369Z,66.34
2019-02-20T01:10:47.976Z,65.92
2019-02-20T01:13:17.575Z,65.87
2019-02-20T01:15:47.397Z,65.86
2019-02-20T01:18:16.883Z,65.85
2019-02-20T01:20:46.513Z,66.34
2019-02-20T01:23:15.901Z,66.18
2019-02-20T01:25:45.291Z,66.58
2019-02-20T01:28:14.956Z,66.99
2019-02-20T01:30:44.719Z,67.03
2019-02-20T01:33:16.014Z,67.14
2019-02-20T01:35:45.634Z,66.78
2019-02-20T01:38:15.207Z,66.37
2019-02-20T01:40:44.689Z,66.13
2019-02-20T01:43:14.076Z,66.04
2019-02-20T01:45:43.573Z,65.87
2019-02-20T01:48:12.975Z,65.84
2019-02-20T01:50:42.769Z,65.56
2019-02-20T01:53:12.524Z,65.38
2019-02-20T01:55:41.998Z,64.39
2019-02-20T01:58:11.389Z,63.95
2019-02-20T02:00:41.020Z,63.50
2019-02-20T02:03:10.791Z,63.08
2019-02-20T02:05:40.550Z,62.64
2019-02-20T02:08:10.021Z,62.56
2019-02-20T02:10:39.718Z,62.60
2019-02-20T02:13:09.406Z,62.89
2019-02-20T02:15:39.175Z,63.21
2019-02-20T02:18:08.758Z,63.46
2019-02-20T02:20:38.403Z,63.90
2019-02-20T02:23:08.238Z,64.33
2019-02-20T02:25:37.763Z,64.86
2019-02-20T02:28:07.244Z,65.37
2019-02-20T02:30:36.848Z,65.58
2019-02-20T02:33:06.407Z,65.76
2019-02-20T02:35:36.011Z,65.93
2019-02-20T02:38:05.788Z,65.82
2019-02-20T02:40:35.567Z,65.78
2019-02-20T02:43:05.165Z,65.99
2019-02-20T02:45:34.870Z,66.32
2019-02-20T02:48:04.646Z,66.28
2019-02-20T02:50:34.396Z,65.94
2019-02-20T02:53:03.794Z,65.72
2019-02-20T02:55:33.399Z,65.85
2019-02-20T02:58:03.258Z,65.93
2019-02-20T03:00:33.123Z,66.35
2019-02-20T03:03:02.817Z,66.54
2019-02-20T03:05:32.636Z,66.91
2019-02-20T03:08:02.239Z,67.32
2019-02-20T03:10:31.843Z,67.44
2019-02-20T03:13:01.573Z,67.64
2019-02-20T03:15:31.306Z,67.92
2019-02-20T03:18:00.964Z,68.01
2019-02-20T03:20:30.454Z,68.24
2019-02-20T03:23:00.127Z,68.31
2019-02-20T03:25:29.797Z,68.42
2019-02-20T03:27:59.440Z,68.47
2019-02-20T03:30:28.905Z,69.06
2019-02-20T03:32:58.631Z,68.14
2019-02-20T03:35:28.341Z,67.82
2019-02-20T03:37:58.030Z,67.82
2019-02-20T03:40:27.469Z,67.92
2019-02-20T03:42:56.933Z,68.17
2019-02-20T03:45:26.709Z,67.76
2019-02-20T03:47:56.399Z,67.93
2019-02-20T03:50:26.017Z,67.32
2019-02-20T03:52:55.779Z,66.85
2019-02-20T03:55:25.172Z,67.00
2019-02-20T03:57:54.909Z,67.39
2019-02-20T04:00:24.606Z,66.50
2019-02-20T04:02:54.008Z,66.52
2019-02-20T04:05:23.569Z,66.41
2019-02-20T04:07:53.096Z,66.55
2019-02-20T04:10:22.913Z,66.42
2019-02-20T04:12:52.304Z,66.75
2019-02-20T04:15:21.705Z,66.58
2019-02-20T04:17:51.456Z,66.01
2019-02-20T04:20:21.377Z,66.17
2019-02-20T04:22:50.938Z,66.33
2019-02-20T04:25:20.774Z,66.62
2019-02-20T04:27:50.364Z,66.65
2019-02-20T04:30:19.784Z,66.87
2019-02-20T04:32:49.503Z,67.19
2019-02-20T04:35:19.232Z,66.56
2019-02-20T04:37:48.793Z,66.10
2019-02-20T04:40:18.418Z,66.23
2019-02-20T04:42:48.178Z,66.09
2019-02-20T04:45:17.656Z,65.53
2019-02-20T04:47:47.117Z,66.04
2019-02-20T04:50:16.785Z,66.16
2019-02-20T04:52:46.512Z,66.97
2019-02-20T04:55:16.181Z,67.31
2019-02-20T04:57:45.799Z,67.75
2019-02-20T05:00:15.531Z,68.17
2019-02-20T05:02:45.277Z,67.43
2019-02-20T05:05:14.917Z,66.67
2019-02-20T05:07:44.402Z,66.53
2019-02-20T05:10:14.022Z,67.24
2019-02-20T05:12:43.602Z,67.60
2019-02-20T05:15:13.014Z,68.05
2019-02-20T05:17:42.492Z,67.51
2019-02-20T05:20:12.003Z,67.22
2019-02-20T05:22:41.400Z,68.00
2019-02-20T05:25:11.172Z,68.05
2019-02-20T05:27:40.684Z,67.41
2019-02-20T05:30:10.535Z,67.72
2019-02-20T05:32:40.179Z,67.31
2019-02-20T05:35:09.588Z,67.89
2019-02-20T05:37:39.757Z,67.49
2019-02-20T05:40:09.488Z,67.41
2019-02-20T05:42:39.061Z,66.89
2019-02-20T05:45:09.028Z,66.93
2019-02-20T05:47:38.558Z,67.58
2019-02-20T05:50:08.179Z,67.92
2019-02-20T05:52:37.812Z,67.68
2019-02-20T05:55:07.586Z,67.52
2019-02-20T05:57:37.424Z,66.12
2019-02-20T06:00:07.814Z,66.29
2019-02-20T06:02:37.368Z,66.68
2019-02-20T06:05:07.109Z,66.24
2019-02-20T06:07:36.848Z,66.34
2019-02-20T06:10:06.712Z,66.78
2019-02-20T06:12:36.307Z,66.59
2019-02-20T06:15:06.090Z,65.61
2019-02-20T06:17:35.850Z,64.38
2019-02-20T06:20:05.862Z,64.25
2019-02-20T06:22:35.527Z,64.40
2019-02-20T06:25:05.295Z,64.45
2019-02-20T06:27:34.754Z,65.08
2019-02-20T06:30:04.467Z,63.82
2019-02-20T06:32:34.210Z,63.34
2019-02-20T06:35:04.108Z,63.01
2019-02-20T06:37:33.615Z,63.02
2019-02-20T06:40:03.241Z,63.16
2019-02-20T06:42:32.934Z,62.12
2019-02-20T06:45:02.639Z,61.53
2019-02-20T06:47:32.225Z,60.18
2019-02-20T06:50:01.821Z,61.23
2019-02-20T06:52:31.571Z,61.69
2019-02-20T06:55:01.277Z,60.82
2019-02-20T06:57:30.860Z,60.71
2019-02-20T07:00:00.453Z,60.93
2019-02-20T07:02:30.000Z,60.42
2019-02-20T07:05:50.296Z,58.86
2019-02-20T07:09:04.764Z,56.15
2019-02-20T07:11:50.810Z,56.01
2019-02-20T07:14:55.748Z,56.05
2019-02-20T07:17:56.883Z,55.96
2019-02-20T07:20:51.425Z,53.47
2019-02-20T07:23:58.039Z,52.29
2019-02-20T07:26:59.932Z,50.82
2019-02-20T07:30:15.627Z,45.75
2019-02-20T07:32:45.326Z,44.54
2019-02-20T07:35:14.824Z,39.08
2019-02-20T07:37:44.222Z,39.98
2019-02-20T07:40:14.008Z,39.74
2019-02-20T07:42:43.926Z,40.28
2019-02-20T07:45:16.434Z,39.60
2019-02-20T07:47:45.862Z,40.17
2019-02-20T07:50:18.237Z,40.90
2019-02-20T07:52:47.719Z,40.88
2019-02-20T07:55:17.356Z,40.57
2019-02-20T07:57:47.145Z,41.30
2019-02-20T08:00:17.550Z,40.90
2019-02-20T08:02:47.131Z,41.28
2019-02-20T08:05:16.579Z,41.73
2019-02-20T08:07:46.282Z,42.13
2019-02-20T08:10:15.729Z,41.21
2019-02-20T08:12:45.266Z,41.02
2019-02-20T08:15:15.289Z,35.92
2019-02-20T08:17:44.970Z,36.42
2019-02-20T08:20:14.396Z,36.89
2019-02-20T08:22:43.832Z,37.31
2019-02-20T08:25:22.285Z,37.76
2019-02-20T08:27:44.520Z,37.90
2019-02-20T08:30:16.233Z,36.70
2019-02-20T08:32:45.832Z,37.38
2019-02-20T08:35:15.278Z,36.74
2019-02-20T08:37:44.825Z,36.12
2019-02-20T08:40:15.696Z,37.00
2019-02-20T08:42:45.193Z,36.06
2019-02-20T08:45:14.779Z,35.52
2019-02-20T08:47:44.266Z,34.97
2019-02-20T08:50:16.635Z,34.40
2019-02-20T08:52:46.118Z,34.09
2019-02-20T08:55:15.858Z,32.94
2019-02-20T08:57:45.466Z,32.46
2019-02-20T09:00:15.291Z,29.64
2019-02-20T09:02:45.123Z,28.33
2019-02-20T09:05:14.547Z,29.25
2019-02-20T09:07:44.178Z,28.47
2019-02-20T09:10:14.108Z,27.53
2019-02-20T09:12:43.818Z,27.16
2019-02-20T09:15:13.655Z,26.87
2019-02-20T09:17:43.291Z,26.67
2019-02-20T09:20:13.043Z,26.20
2019-02-20T09:22:42.756Z,23.61
2019-02-20T09:25:19.620Z,23.18
2019-02-20T09:27:43.976Z,23.35
2019-02-20T09:30:14.346Z,21.94
2019-02-20T09:32:43.948Z,21.38
2019-02-20T09:35:13.767Z,20.67
2019-02-20T09:37:43.269Z,20.16
2019-02-20T09:40:14.649Z,20.39
2019-02-20T09:42:45.806Z,19.79
2019-02-20T09:45:15.459Z,19.63
2019-02-20T09:47:45.044Z,19.21
2019-02-20T09:50:15.189Z,18.46
2019-02-20T09:52:51.992Z,17.99
2019-02-20T09:55:16.347Z,18.30
2019-02-20T09:57:45.755Z,17.74
2019-02-20T10:00:15.981Z,16.23
2019-02-20T10:02:47.301Z,16.68
2019-02-20T10:05:17.319Z,15.50
2019-02-20T10:07:46.935Z,16.15
2019-02-20T10:10:16.389Z,15.72
2019-02-20T10:12:46.178Z,14.77
2019-02-20T10:15:15.876Z,13.66
2019-02-20T10:17:45.567Z,12.79
2019-02-20T10:20:15.461Z,13.00
2019-02-20T10:22:45.209Z,12.07
2019-02-20T10:25:14.956Z,12.11
2019-02-20T10:27:44.410Z,12.02
2019-02-20T10:30:15.530Z,12.07
2019-02-20T10:32:45.262Z,11.31
2019-02-20T10:35:15.199Z,11.28
2019-02-20T10:37:45.061Z,11.01
2019-02-20T10:40:14.497Z,11.21
2019-02-20T10:42:44.106Z,11.04
2019-02-20T10:45:13.924Z,10.32
2019-02-20T10:47:43.679Z,10.40
2019-02-20T10:50:13.224Z,9.70
2019-02-20T10:52:42.818Z,9.59
2019-02-20T10:55:12.814Z,10.53
2019-02-20T10:57:42.464Z,9.86
2019-02-20T11:00:24.453Z,10.03
2019-02-20T11:02:54.254Z,9.63
2019-02-20T11:05:23.716Z,9.30
2019-02-20T11:07:53.415Z,10.35
2019-02-20T11:10:24.109Z,11.11
2019-02-20T11:12:54.026Z,12.05
2019-02-20T11:15:23.745Z,11.40
2019-02-20T11:17:53.490Z,10.78
2019-02-20T11:20:23.249Z,10.41
2019-02-20T11:22:52.749Z,9.71
2019-02-20T11:25:22.585Z,9.94
2019-02-20T11:27:52.296Z,10.51
2019-02-20T11:30:21.910Z,10.59
2019-02-20T11:32:51.468Z,11.38
2019-02-20T11:35:21.268Z,11.77
2019-02-20T11:37:50.916Z,11.67
2019-02-20T11:40:20.697Z,10.81
2019-02-20T11:42:50.353Z,9.84
2019-02-20T11:45:20.149Z,9.28
2019-02-20T11:47:49.825Z,8.63
2019-02-20T11:50:19.659Z,8.63
2019-02-20T11:52:49.515Z,8.33
2019-02-20T11:55:19.207Z,7.83
2019-02-20T11:57:48.839Z,7.18
2019-02-20T12:00:18.704Z,7.22
2019-02-20T12:02:48.474Z,7.04
2019-02-20T12:05:18.306Z,6.95
2019-02-20T12:07:48.022Z,7.29
2019-02-20T12:10:18.100Z,7.14
2019-02-20T12:12:47.699Z,7.03
2019-02-20T12:15:17.448Z,7.06
2019-02-20T12:17:46.961Z,7.19
2019-02-20T12:20:16.691Z,6.84
2019-02-20T12:22:46.532Z,6.32
2019-02-20T12:25:16.393Z,6.55
2019-02-20T12:27:46.114Z,7.59
2019-02-20T12:30:16.020Z,7.96
2019-02-20T12:32:45.415Z,8.25
2019-02-20T12:35:15.204Z,8.49
2019-02-20T12:37:44.944Z,8.24
2019-02-20T12:40:14.437Z,8.39
2019-02-20T12:42:43.830Z,9.11
2019-02-20T12:45:14.020Z,8.72
2019-02-20T12:47:43.792Z,8.58
2019-02-20T12:50:13.692Z,8.69
2019-02-20T12:52:43.331Z,8.65
2019-02-20T12:55:13.204Z,8.69
2019-02-20T12:57:43.000Z,8.45
2019-02-20T13:00:12.820Z,8.48
2019-02-20T13:02:42.474Z,8.80
2019-02-20T13:05:12.023Z,8.90
2019-02-20T13:07:41.928Z,9.15
2019-02-20T13:10:11.578Z,9.02
2019-02-20T13:12:41.386Z,9.27
2019-02-20T13:15:11.184Z,9.29
2019-02-20T13:17:40.659Z,9.32
2019-02-20T13:20:10.579Z,9.64
2019-02-20T13:22:40.196Z,10.00
2019-02-20T13:25:10.575Z,10.06
2019-02-20T13:27:40.402Z,11.55
2019-02-20T13:30:10.640Z,12.96
2019-02-20T13:32:40.453Z,15.03
2019-02-20T13:35:10.807Z,15.03
2019-02-20T13:37:40.524Z,15.03
2019-02-20T13:40:10.219Z,15.60
2019-02-20T13:42:40.054Z,16.53
2019-02-20T13:45:11.764Z,16.90
2019-02-20T13:47:41.307Z,17.27
2019-02-20T13:50:11.772Z,17.68
2019-02-20T13:52:42.246Z,18.20
2019-02-20T13:55:12.077Z,18.49
2019-02-20T13:57:41.939Z,19.01
2019-02-20T14:00:13.446Z,18.65
2019-02-20T14:02:43.000Z,18.07
2019-02-20T14:05:12.594Z,18.48
2019-02-20T14:07:42.567Z,18.31
2019-02-20T14:10:12.363Z,18.00
2019-02-20T14:12:41.762Z,18.69
2019-02-20T14:15:11.995Z,18.92
2019-02-20T14:17:41.501Z,19.55
2019-02-20T14:20:11.712Z,19.99
2019-02-20T14:22:41.395Z,20.36
2019-02-20T14:25:10.974Z,20.94
2019-02-20T14:27:40.643Z,21.55
2019-02-20T14:30:10.823Z,21.36
2019-02-20T14:32:40.743Z,22.05
2019-02-20T14:35:11.296Z,22.41
2019-02-20T14:37:41.300Z,22.39
2019-02-20T14:40:11.058Z,22.20
2019-02-20T14:42:40.710Z,22.33
2019-02-20T14:45:11.273Z,22.68
2019-02-20T14:47:40.865Z,23.13
2019-02-20T14:50:10.599Z,23.35
2019-02-20T14:52:40.710Z,23.49
2019-02-20T14:55:10.512Z,23.77
2019-02-20T14:57:40.103Z,23.99
2019-02-20T15:00:11.296Z,24.03
2019-02-20T15:02:41.153Z,23.89
2019-02-20T15:05:12.088Z,24.05
2019-02-20T15:07:42.099Z,24.18
2019-02-20T15:10:11.634Z,24.88
2019-02-20T15:12:41.224Z,24.86
2019-02-20T15:15:11.074Z,25.05
2019-02-20T15:17:40.981Z,25.03
2019-02-20T15:20:11.299Z,24.84
2019-02-20T15:22:40.978Z,25.15
2019-02-20T15:25:11.056Z,25.58
2019-02-20T15:27:40.991Z,25.33
2019-02-20T15:30:12.679Z,25.39
2019-02-20T15:32:42.372Z,25.88
2019-02-20T15:35:12.323Z,26.11
2019-02-20T15:37:42.112Z,26.17
2019-02-20T15:40:11.916Z,26.55
2019-02-20T15:42:41.621Z,26.29
2019-02-20T15:45:11.496Z,26.45
2019-02-20T15:47:41.142Z,27.09
2019-02-20T15:50:12.744Z,26.89
2019-02-20T15:52:42.673Z,27.39
2019-02-20T15:55:13.932Z,27.75
2019-02-20T15:57:43.664Z,27.74
2019-02-20T16:00:16.036Z,27.75
2019-02-20T16:02:46.236Z,28.11
2019-02-20T16:05:16.881Z,28.28
2019-02-20T16:07:46.290Z,28.42
2019-02-20T16:10:16.427Z,28.56
2019-02-20T16:12:46.156Z,28.70
2019-02-20T16:15:15.934Z,28.27
2019-02-20T16:17:45.697Z,28.39
2019-02-20T16:20:15.944Z,28.48
2019-02-20T16:22:45.684Z,28.59
2019-02-20T16:25:15.498Z,28.69
2019-02-20T16:27:48.442Z,29.03
2019-02-20T16:30:18.256Z,29.00
2019-02-20T16:32:48.065Z,29.10
2019-02-20T16:35:17.799Z,29.30
2019-02-20T16:37:47.422Z,29.39
2019-02-20T16:40:17.357Z,29.63
2019-02-20T16:42:47.318Z,29.50
2019-02-20T16:45:19.422Z,29.67
2019-02-20T16:47:48.973Z,29.57
2019-02-20T16:50:18.730Z,29.70
2019-02-20T16:52:48.378Z,29.80
2019-02-20T16:55:19.809Z,29.98
2019-02-20T16:57:56.612Z,30.25
2019-02-20T17:00:23.446Z,30.13
2019-02-20T17:02:53.446Z,30.25
2019-02-20T17:05:23.331Z,30.79
2019-02-20T17:08:15.817Z,30.64
2019-02-20T17:10:45.823Z,31.00
2019-02-20T17:14:15.141Z,31.52
2019-02-20T17:16:45.087Z,31.92
2019-02-20T17:19:14.937Z,32.30
2019-02-20T17:21:46.004Z,32.53
2019-02-20T17:24:16.192Z,32.67
2019-02-20T17:26:46.154Z,32.97
2019-02-20T17:29:15.969Z,33.26
2019-02-20T17:31:45.709Z,33.81
2019-02-20T17:34:15.101Z,34.22
2019-02-20T17:36:45.912Z,34.79
2019-02-20T17:39:15.684Z,34.70
2019-02-20T17:41:45.263Z,35.03
2019-02-20T17:44:14.879Z,35.36
2019-02-20T17:46:44.619Z,35.78
2019-02-20T17:49:14.420Z,35.38
2019-02-20T17:51:46.339Z,35.31
2019-02-20T17:54:17.248Z,35.14
2019-02-20T17:56:46.796Z,34.96
2019-02-20T17:59:16.701Z,35.29
2019-02-20T18:01:46.596Z,35.65
2019-02-20T18:04:16.368Z,34.76
2019-02-20T18:06:46.136Z,34.74
2019-02-20T18:09:15.734Z,34.86
2019-02-20T18:11:45.492Z,35.02
2019-02-20T18:14:15.127Z,35.44
2019-02-20T18:16:44.605Z,36.06
2019-02-20T18:19:14.146Z,36.38
2019-02-20T18:21:43.955Z,36.54
2019-02-20T18:24:13.768Z,36.66
2019-02-20T18:26:43.294Z,37.00
2019-02-20T18:29:12.746Z,37.38
2019-02-20T18:31:42.502Z,37.56
2019-02-20T18:34:11.918Z,37.74
2019-02-20T18:36:41.641Z,37.75
2019-02-20T18:39:11.201Z,37.50
2019-02-20T18:41:41.071Z,37.32
2019-02-20T18:44:10.766Z,36.93
2019-02-20T18:46:40.216Z,36.75
2019-02-20T18:49:09.973Z,36.61
2019-02-20T18:51:39.677Z,36.55
2019-02-20T18:54:09.292Z,36.84
2019-02-20T18:56:38.857Z,36.61
2019-02-20T18:59:08.388Z,36.80
2019-02-20T19:01:37.854Z,36.69
2019-02-20T19:04:08.119Z,36.96
2019-02-20T19:06:37.842Z,36.92
2019-02-20T19:09:23.785Z,37.25
2019-02-20T19:12:52.389Z,37.49
2019-02-20T19:15:55.777Z,37.82
2019-02-20T19:19:21.020Z,38.41
2019-02-20T19:22:27.132Z,38.87
2019-02-20T19:25:40.270Z,39.37
2019-02-20T19:28:57.048Z,39.52
2019-02-20T19:31:55.039Z,39.79
2019-02-20T19:35:00.909Z,39.95
2019-02-20T19:38:09.391Z,40.17
2019-02-20T19:41:28.503Z,40.15
2019-02-20T19:44:45.029Z,40.43
2019-02-20T19:47:50.418Z,40.77
2019-02-20T19:50:48.316Z,40.89
2019-02-20T19:53:53.838Z,41.07
2019-02-20T19:57:03.032Z,41.37
2019-02-20T20:00:10.708Z,41.46
2019-02-20T20:03:09.334Z,41.76
2019-02-20T20:06:22.326Z,42.03
2019-02-20T20:09:29.928Z,42.25
2019-02-20T20:12:11.701Z,42.46
2019-02-20T20:15:40.169Z,42.69
2019-02-20T20:18:59.887Z,42.75
2019-02-20T20:22:15.955Z,42.87
2019-02-20T20:25:25.327Z,42.87
2019-02-20T20:28:32.918Z,43.09
2019-02-20T20:31:46.072Z,42.84
2019-02-20T20:35:05.616Z,42.82
2019-02-20T20:38:10.230Z,42.99
2019-02-20T20:41:17.677Z,42.99
2019-02-20T20:44:40.161Z,43.19
2019-02-20T20:47:51.516Z,43.14
2019-02-20T20:51:22.825Z,43.12
2019-02-20T20:54:36.435Z,43.46
2019-02-20T20:57:35.131Z,43.54
2019-02-20T21:00:40.645Z,43.53
2019-02-20T21:03:13.508Z,43.62
2019-02-20T21:06:23.374Z,43.77
2019-02-20T21:09:28.249Z,43.74
2019-02-20T21:12:42.432Z,44.09
2019-02-20T21:15:51.854Z,43.89
2019-02-20T21:18:57.656Z,43.96
2019-02-20T21:22:11.100Z,43.98
2019-02-20T21:25:22.520Z,43.80
2019-02-20T21:28:41.779Z,43.71
2019-02-20T21:31:36.562Z,43.86
2019-02-20T21:34:39.001Z,43.97
2019-02-20T21:37:37.564Z,44.17
2019-02-20T21:40:19.924Z,44.09
2019-02-20T21:43:09.856Z,43.96
2019-02-20T21:46:04.374Z,44.08
2019-02-20T21:49:10.670Z,44.13
2019-02-20T21:51:53.000Z,44.13
2019-02-20T21:54:56.521Z,44.12
2019-02-20T21:58:14.063Z,44.20
2019-02-20T22:01:39.569Z,44.07
2019-02-20T22:04:49.186Z,44.07
2019-02-20T22:07:55.539Z,44.15
2019-02-20T22:10:50.750Z,44.43
2019-02-20T22:13:55.855Z,44.51
2019-02-20T22:16:56.794Z,44.60
2019-02-20T22:19:55.801Z,44.86
2019-02-20T22:22:52.597Z,45.10
2019-02-20T22:26:05.089Z,44.90
2019-02-20T22:28:45.934Z,45.08
2019-02-20T22:31:57.242Z,45.03
2019-02-20T22:34:55.586Z,45.05
2019-02-20T22:38:12.400Z,44.98
2019-02-20T22:41:18.697Z,44.97
2019-02-20T22:44:44.237Z,45.14
2019-02-20T22:48:00.243Z,44.89
2019-02-20T22:51:09.365Z,44.70
2019-02-20T22:54:12.233Z,44.80
2019-02-20T22:57:24.404Z,45.14
2019-02-20T23:00:37.339Z,44.83
2019-02-20T23:03:37.695Z,44.99
2019-02-20T23:06:57.064Z,45.30
2019-02-20T23:10:15.602Z,45.29
2019-02-20T23:13:18.204Z,45.57
2019-02-20T23:15:48.053Z,45.91
2019-02-20T23:18:17.774Z,45.79
2019-02-20T23:20:47.466Z,45.84
2019-02-20T23:23:17.186Z,45.87
2019-02-20T23:25:46.883Z,46.18
2019-02-20T23:28:16.266Z,46.26
2019-02-20T23:30:46.008Z,46.42
2019-02-20T23:33:15.753Z,46.47
2019-02-20T23:35:45.513Z,46.24
2019-02-20T23:38:15.102Z,46.33
2019-02-20T23:40:44.846Z,46.21
2019-02-20T23:43:14.531Z,46.13
2019-02-20T23:45:44.232Z,46.20
2019-02-20T23:48:13.630Z,46.20
2019-02-20T23:50:43.413Z,46.34
2019-02-20T23:53:13.169Z,46.32
2019-02-20T23:55:42.903Z,46.29
2019-02-20T23:58:12.368Z,46.39
